Terminal Aerodrome Forecast
Issued by NWS Twin Cities, MN

Home | Current Version | Previous Version | Graphics & Text | Print | Product List | Glossary On
Versions: 1 2 3 4 5 6 7 8 9 10 11 12 13 14 15 16 17 18 19 20 21 22 23 24 25 26 27
037
FTUS43 KMPX 041452 AAA
TAFMSP
TAF AMD
KMSP 041452Z 0415/0518 13005KT 3SM -SN SCT015 OVC025
      TEMPO 0415/0418 1SM -SN BR OVC008
     FM041900 28008KT P6SM -SN OVC020
     FM042200 29004KT P6SM FEW025
     FM050700 29003KT P6SM BKN250=

USA.gov is the U.S. government's official web portal to all federal, state and local government web resources and services.